sensor_id;sensor_type;location;lat;lon;timestamp;pressure;altitude;pressure_sealevel;temperature;humidity
74639;BME280;63146;-33.830;18.668;2022-09-03T00:01:02;100774.11;;;5.18;74.84
74639;BME280;63146;-33.830;18.668;2022-09-03T00:03:30;100769.14;;;4.98;74.21
74639;BME280;63146;-33.830;18.668;2022-09-03T00:05:59;100769.36;;;5.18;74.03
74639;BME280;63146;-33.830;18.668;2022-09-03T00:08:20;100767.23;;;5.18;74.43
74639;BME280;63146;-33.830;18.668;2022-09-03T00:10:47;100762.27;;;5.31;74.42
74639;BME280;63146;-33.830;18.668;2022-09-03T00:13:09;100765.46;;;5.42;74.39
74639;BME280;63146;-33.830;18.668;2022-09-03T00:15:34;100765.98;;;5.52;74.05
74639;BME280;63146;-33.830;18.668;2022-09-03T00:18:03;100762.84;;;5.30;74.26
74639;BME280;63146;-33.830;18.668;2022-09-03T00:20:27;100762.85;;;5.49;73.67
74639;BME280;63146;-33.830;18.668;2022-09-03T00:22:52;100761.51;;;5.43;73.45
74639;BME280;63146;-33.830;18.668;2022-09-03T00:25:20;100763.97;;;5.28;73.16
74639;BME280;63146;-33.830;18.668;2022-09-03T00:27:41;100761.05;;;5.22;73.10
74639;BME280;63146;-33.830;18.668;2022-09-03T00:30:09;100758.03;;;5.55;72.75
74639;BME280;63146;-33.830;18.668;2022-09-03T00:32:38;100762.25;;;5.51;72.99
74639;BME280;63146;-33.830;18.668;2022-09-03T00:35:01;100758.52;;;5.46;72.94
74639;BME280;63146;-33.830;18.668;2022-09-03T00:37:22;100758.32;;;5.48;73.31
74639;BME280;63146;-33.830;18.668;2022-09-03T00:39:47;100754.31;;;5.39;73.52
74639;BME280;63146;-33.830;18.668;2022-09-03T00:42:27;100755.04;;;5.24;73.33
74639;BME280;63146;-33.830;18.668;2022-09-03T00:44:56;100750.03;;;5.31;73.15
74639;BME280;63146;-33.830;18.668;2022-09-03T00:47:11;100745.91;;;5.50;73.30
74639;BME280;63146;-33.830;18.668;2022-09-03T00:49:40;100740.25;;;5.40;73.78
74639;BME280;63146;-33.830;18.668;2022-09-03T00:52:02;100739.52;;;5.24;74.15
74639;BME280;63146;-33.830;18.668;2022-09-03T00:54:27;100739.21;;;5.33;73.97
74639;BME280;63146;-33.830;18.668;2022-09-03T00:56:52;100738.14;;;5.04;74.37
74639;BME280;63146;-33.830;18.668;2022-09-03T00:59:21;100740.37;;;5.09;73.61
74639;BME280;63146;-33.830;18.668;2022-09-03T01:01:44;100740.39;;;4.88;74.24
74639;BME280;63146;-33.830;18.668;2022-09-03T01:04:13;100743.42;;;5.15;73.54
74639;BME280;63146;-33.830;18.668;2022-09-03T01:06:32;100742.20;;;4.86;74.21
74639;BME280;63146;-33.830;18.668;2022-09-03T01:09:04;100741.06;;;5.29;74.39
74639;BME280;63146;-33.830;18.668;2022-09-03T01:11:26;100740.34;;;5.04;74.47
74639;BME280;63146;-33.830;18.668;2022-09-03T01:13:49;100739.64;;;5.46;74.09
74639;BME280;63146;-33.830;18.668;2022-09-03T01:16:17;100735.20;;;5.13;74.52
74639;BME280;63146;-33.830;18.668;2022-09-03T01:18:41;100729.48;;;5.30;74.62
74639;BME280;63146;-33.830;18.668;2022-09-03T01:21:15;100726.42;;;5.26;74.90
74639;BME280;63146;-33.830;18.668;2022-09-03T01:23:35;100725.68;;;5.28;75.18
74639;BME280;63146;-33.830;18.668;2022-09-03T01:25:56;100723.56;;;5.19;73.87
74639;BME280;63146;-33.830;18.668;2022-09-03T01:28:24;100724.81;;;5.06;74.12
74639;BME280;63146;-33.830;18.668;2022-09-03T01:30:47;100726.18;;;5.00;74.29
74639;BME280;63146;-33.830;18.668;2022-09-03T01:33:14;100727.71;;;4.97;74.22
74639;BME280;63146;-33.830;18.668;2022-09-03T01:35:41;100728.12;;;5.16;74.06
74639;BME280;63146;-33.830;18.668;2022-09-03T01:38:10;100727.84;;;5.21;75.05
74639;BME280;63146;-33.830;18.668;2022-09-03T01:40:32;100727.96;;;5.28;75.09
74639;BME280;63146;-33.830;18.668;2022-09-03T01:42:59;100724.86;;;5.14;74.94
74639;BME280;63146;-33.830;18.668;2022-09-03T01:45:29;100720.91;;;5.35;75.44
74639;BME280;63146;-33.830;18.668;2022-09-03T01:47:50;100721.99;;;4.99;75.22
74639;BME280;63146;-33.830;18.668;2022-09-03T01:50:12;100728.23;;;4.92;74.96
74639;BME280;63146;-33.830;18.668;2022-09-03T01:52:42;100728.62;;;5.21;75.44
74639;BME280;63146;-33.830;18.668;2022-09-03T01:55:08;100728.53;;;5.03;75.44
74639;BME280;63146;-33.830;18.668;2022-09-03T01:57:39;100726.06;;;5.02;74.99
74639;BME280;63146;-33.830;18.668;2022-09-03T01:59:55;100727.35;;;5.16;75.36
74639;BME280;63146;-33.830;18.668;2022-09-03T02:02:19;100729.36;;;4.98;76.66
74639;BME280;63146;-33.830;18.668;2022-09-03T02:04:41;100730.50;;;5.01;75.71
74639;BME280;63146;-33.830;18.668;2022-09-03T02:07:06;100734.61;;;5.04;75.58
74639;BME280;63146;-33.830;18.668;2022-09-03T02:09:32;100737.33;;;5.00;75.67
74639;BME280;63146;-33.830;18.668;2022-09-03T02:12:01;100741.15;;;5.21;75.59
74639;BME280;63146;-33.830;18.668;2022-09-03T02:14:23;100736.69;;;5.24;76.34
74639;BME280;63146;-33.830;18.668;2022-09-03T02:16:48;100738.74;;;5.22;76.21
74639;BME280;63146;-33.830;18.668;2022-09-03T02:19:18;100740.56;;;5.34;75.86
74639;BME280;63146;-33.830;18.668;2022-09-03T02:21:43;100738.42;;;5.21;76.40
74639;BME280;63146;-33.830;18.668;2022-09-03T02:24:05;100735.02;;;5.26;76.24
74639;BME280;63146;-33.830;18.668;2022-09-03T02:26:30;100732.54;;;5.49;76.38
74639;BME280;63146;-33.830;18.668;2022-09-03T02:28:55;100728.05;;;5.20;76.73
74639;BME280;63146;-33.830;18.668;2022-09-03T02:31:21;100724.48;;;5.18;76.73
74639;BME280;63146;-33.830;18.668;2022-09-03T02:33:47;100720.80;;;5.33;76.53
74639;BME280;63146;-33.830;18.668;2022-09-03T02:36:14;100721.70;;;5.26;76.25
74639;BME280;63146;-33.830;18.668;2022-09-03T02:38:38;100716.20;;;5.32;76.72
74639;BME280;63146;-33.830;18.668;2022-09-03T02:41:03;100716.90;;;5.01;77.42
74639;BME280;63146;-33.830;18.668;2022-09-03T02:43:35;100714.50;;;5.47;77.53
74639;BME280;63146;-33.830;18.668;2022-09-03T02:45:58;100720.41;;;5.20;77.60
74639;BME280;63146;-33.830;18.668;2022-09-03T02:48:22;100725.05;;;5.23;77.19
74639;BME280;63146;-33.830;18.668;2022-09-03T02:50:45;100722.53;;;5.16;77.10
74639;BME280;63146;-33.830;18.668;2022-09-03T02:53:10;100723.88;;;5.28;76.88
74639;BME280;63146;-33.830;18.668;2022-09-03T02:55:37;100726.12;;;5.14;77.46
74639;BME280;63146;-33.830;18.668;2022-09-03T02:58:02;100730.96;;;5.33;77.56
74639;BME280;63146;-33.830;18.668;2022-09-03T03:00:27;100734.94;;;5.06;77.11
74639;BME280;63146;-33.830;18.668;2022-09-03T03:02:54;100737.40;;;5.06;77.72
74639;BME280;63146;-33.830;18.668;2022-09-03T03:05:24;100735.33;;;5.07;78.04
74639;BME280;63146;-33.830;18.668;2022-09-03T03:07:44;100739.79;;;5.26;77.46
74639;BME280;63146;-33.830;18.668;2022-09-03T03:10:14;100741.56;;;5.29;77.53
74639;BME280;63146;-33.830;18.668;2022-09-03T03:12:40;100745.10;;;4.96;78.43
74639;BME280;63146;-33.830;18.668;2022-09-03T03:15:01;100741.93;;;5.20;78.55
74639;BME280;63146;-33.830;18.668;2022-09-03T03:17:26;100740.25;;;5.09;77.97
74639;BME280;63146;-33.830;18.668;2022-09-03T03:19:51;100741.92;;;5.37;78.72
74639;BME280;63146;-33.830;18.668;2022-09-03T03:22:16;100742.06;;;5.07;78.16
74639;BME280;63146;-33.830;18.668;2022-09-03T03:24:42;100745.57;;;5.01;78.18
74639;BME280;63146;-33.830;18.668;2022-09-03T03:27:08;100742.98;;;4.96;77.71
74639;BME280;63146;-33.830;18.668;2022-09-03T03:29:33;100745.96;;;5.46;77.81
74639;BME280;63146;-33.830;18.668;2022-09-03T03:31:59;100748.64;;;5.03;78.02
74639;BME280;63146;-33.830;18.668;2022-09-03T03:34:24;100746.73;;;5.11;77.57
74639;BME280;63146;-33.830;18.668;2022-09-03T03:36:50;100751.80;;;5.22;77.77
74639;BME280;63146;-33.830;18.668;2022-09-03T03:39:15;100755.58;;;4.94;78.35
74639;BME280;63146;-33.830;18.668;2022-09-03T03:41:41;100754.05;;;4.99;78.26
74639;BME280;63146;-33.830;18.668;2022-09-03T03:44:07;100753.01;;;5.18;77.88
74639;BME280;63146;-33.830;18.668;2022-09-03T03:46:34;100759.55;;;5.10;78.78
74639;BME280;63146;-33.830;18.668;2022-09-03T03:48:57;100759.50;;;5.04;78.41
74639;BME280;63146;-33.830;18.668;2022-09-03T03:51:22;100760.90;;;5.07;78.31
74639;BME280;63146;-33.830;18.668;2022-09-03T03:53:48;100762.11;;;5.08;78.20
74639;BME280;63146;-33.830;18.668;2022-09-03T03:56:14;100762.12;;;5.06;78.22
74639;BME280;63146;-33.830;18.668;2022-09-03T03:58:40;100762.68;;;5.28;79.15
74639;BME280;63146;-33.830;18.668;2022-09-03T04:01:06;100763.71;;;4.93;78.75
74639;BME280;63146;-33.830;18.668;2022-09-03T04:03:30;100763.54;;;5.23;78.10
74639;BME280;63146;-33.830;18.668;2022-09-03T04:05:56;100767.74;;;4.95;78.97
74639;BME280;63146;-33.830;18.668;2022-09-03T04:08:21;100768.16;;;4.89;79.03
74639;BME280;63146;-33.830;18.668;2022-09-03T04:10:48;100769.30;;;5.05;78.83
74639;BME280;63146;-33.830;18.668;2022-09-03T04:13:12;100769.11;;;4.94;79.21
74639;BME280;63146;-33.830;18.668;2022-09-03T04:15:38;100769.62;;;4.93;78.58
74639;BME280;63146;-33.830;18.668;2022-09-03T04:18:03;100771.29;;;5.02;79.19
74639;BME280;63146;-33.830;18.668;2022-09-03T04:20:28;100766.41;;;4.99;78.32
74639;BME280;63146;-33.830;18.668;2022-09-03T04:22:54;100766.67;;;4.84;78.28
74639;BME280;63146;-33.830;18.668;2022-09-03T04:25:19;100770.06;;;4.61;78.22
74639;BME280;63146;-33.830;18.668;2022-09-03T04:27:46;100767.61;;;4.79;76.86
74639;BME280;63146;-33.830;18.668;2022-09-03T04:30:11;100770.79;;;4.56;76.76
74639;BME280;63146;-33.830;18.668;2022-09-03T04:32:36;100762.98;;;4.87;77.68
74639;BME280;63146;-33.830;18.668;2022-09-03T04:35:01;100759.13;;;4.98;76.17
74639;BME280;63146;-33.830;18.668;2022-09-03T04:37:27;100762.64;;;5.02;75.88
74639;BME280;63146;-33.830;18.668;2022-09-03T04:39:52;100761.26;;;4.72;76.07
74639;BME280;63146;-33.830;18.668;2022-09-03T04:42:18;100762.94;;;5.01;75.16
74639;BME280;63146;-33.830;18.668;2022-09-03T04:44:43;100761.78;;;4.82;77.01
74639;BME280;63146;-33.830;18.668;2022-09-03T04:47:09;100754.43;;;4.92;77.21
74639;BME280;63146;-33.830;18.668;2022-09-03T04:49:34;100758.47;;;4.89;76.73
74639;BME280;63146;-33.830;18.668;2022-09-03T04:52:00;100754.43;;;5.02;75.79
74639;BME280;63146;-33.830;18.668;2022-09-03T04:54:25;100756.05;;;4.88;75.84
74639;BME280;63146;-33.830;18.668;2022-09-03T04:56:51;100753.81;;;5.03;75.44
74639;BME280;63146;-33.830;18.668;2022-09-03T04:59:16;100753.61;;;5.35;75.65
74639;BME280;63146;-33.830;18.668;2022-09-03T05:01:42;100752.22;;;5.09;75.72
74639;BME280;63146;-33.830;18.668;2022-09-03T05:04:08;100753.04;;;5.04;75.35
74639;BME280;63146;-33.830;18.668;2022-09-03T05:06:34;100757.41;;;5.23;75.61
74639;BME280;63146;-33.830;18.668;2022-09-03T05:08:59;100756.49;;;5.18;75.85
74639;BME280;63146;-33.830;18.668;2022-09-03T05:11:26;100763.85;;;5.16;76.11
74639;BME280;63146;-33.830;18.668;2022-09-03T05:13:50;100766.86;;;5.12;76.26
74639;BME280;63146;-33.830;18.668;2022-09-03T05:16:15;100769.01;;;4.87;75.87
74639;BME280;63146;-33.830;18.668;2022-09-03T05:18:40;100776.55;;;5.16;76.00
74639;BME280;63146;-33.830;18.668;2022-09-03T05:21:07;100775.71;;;4.98;76.80
74639;BME280;63146;-33.830;18.668;2022-09-03T05:23:33;100773.24;;;5.17;76.64
74639;BME280;63146;-33.830;18.668;2022-09-03T05:25:57;100770.78;;;5.16;76.91
74639;BME280;63146;-33.830;18.668;2022-09-03T05:28:21;100769.52;;;5.28;76.75
74639;BME280;63146;-33.830;18.668;2022-09-03T05:33:13;100766.29;;;5.35;75.98
74639;BME280;63146;-33.830;18.668;2022-09-03T05:35:38;100768.51;;;4.95;75.97
74639;BME280;63146;-33.830;18.668;2022-09-03T05:38:03;100769.63;;;4.98;76.12
74639;BME280;63146;-33.830;18.668;2022-09-03T05:40:28;100775.03;;;5.07;75.49
74639;BME280;63146;-33.830;18.668;2022-09-03T05:42:56;100783.47;;;5.61;75.04
74639;BME280;63146;-33.830;18.668;2022-09-03T05:45:19;100783.64;;;5.25;75.80
74639;BME280;63146;-33.830;18.668;2022-09-03T05:47:44;100782.57;;;4.91;75.84
74639;BME280;63146;-33.830;18.668;2022-09-03T05:50:10;100786.76;;;5.14;76.10
74639;BME280;63146;-33.830;18.668;2022-09-03T05:52:35;100791.83;;;4.97;76.44
74639;BME280;63146;-33.830;18.668;2022-09-03T05:55:01;100791.71;;;4.90;75.83
74639;BME280;63146;-33.830;18.668;2022-09-03T05:57:26;100800.24;;;5.06;76.32
74639;BME280;63146;-33.830;18.668;2022-09-03T05:59:52;100802.78;;;5.20;76.09
74639;BME280;63146;-33.830;18.668;2022-09-03T06:02:17;100810.59;;;5.07;75.75
74639;BME280;63146;-33.830;18.668;2022-09-03T06:04:42;100814.47;;;5.13;75.93
74639;BME280;63146;-33.830;18.668;2022-09-03T06:07:07;100817.29;;;5.17;75.91
74639;BME280;63146;-33.830;18.668;2022-09-03T06:09:33;100816.22;;;5.02;75.85
74639;BME280;63146;-33.830;18.668;2022-09-03T06:11:58;100817.18;;;5.17;74.62
74639;BME280;63146;-33.830;18.668;2022-09-03T06:14:24;100813.28;;;5.42;75.06
74639;BME280;63146;-33.830;18.668;2022-09-03T06:16:50;100812.21;;;5.68;75.07
74639;BME280;63146;-33.830;18.668;2022-09-03T06:19:15;100813.77;;;5.72;74.50
74639;BME280;63146;-33.830;18.668;2022-09-03T06:21:42;100808.22;;;6.03;74.69
74639;BME280;63146;-33.830;18.668;2022-09-03T06:24:07;100816.44;;;5.77;74.44
74639;BME280;63146;-33.830;18.668;2022-09-03T06:26:32;100821.35;;;5.75;74.93
74639;BME280;63146;-33.830;18.668;2022-09-03T06:28:57;100819.17;;;5.66;74.44
74639;BME280;63146;-33.830;18.668;2022-09-03T06:31:24;100822.16;;;5.73;73.71
74639;BME280;63146;-33.830;18.668;2022-09-03T06:33:49;100821.93;;;5.91;74.45
74639;BME280;63146;-33.830;18.668;2022-09-03T06:36:15;100824.12;;;5.88;74.69
74639;BME280;63146;-33.830;18.668;2022-09-03T06:38:41;100823.96;;;6.20;73.38
74639;BME280;63146;-33.830;18.668;2022-09-03T06:41:08;100826.88;;;6.39;72.91
74639;BME280;63146;-33.830;18.668;2022-09-03T06:43:32;100830.22;;;6.18;73.98
74639;BME280;63146;-33.830;18.668;2022-09-03T06:45:58;100829.94;;;6.41;73.92
74639;BME280;63146;-33.830;18.668;2022-09-03T06:48:22;100816.96;;;6.38;74.29
74639;BME280;63146;-33.830;18.668;2022-09-03T06:50:54;100815.64;;;6.47;74.52
74639;BME280;63146;-33.830;18.668;2022-09-03T06:53:18;100816.41;;;6.11;74.76
74639;BME280;63146;-33.830;18.668;2022-09-03T06:55:39;100816.58;;;6.19;74.62
74639;BME280;63146;-33.830;18.668;2022-09-03T06:58:05;100821.70;;;6.24;74.19
74639;BME280;63146;-33.830;18.668;2022-09-03T07:00:29;100826.22;;;6.23;74.28
74639;BME280;63146;-33.830;18.668;2022-09-03T07:02:56;100825.16;;;6.49;73.13
74639;BME280;63146;-33.830;18.668;2022-09-03T07:05:21;100829.00;;;6.65;73.43
74639;BME280;63146;-33.830;18.668;2022-09-03T07:07:46;100838.42;;;6.89;71.84
74639;BME280;63146;-33.830;18.668;2022-09-03T07:10:12;100844.04;;;7.11;71.52
74639;BME280;63146;-33.830;18.668;2022-09-03T07:12:37;100844.98;;;7.09;71.35
74639;BME280;63146;-33.830;18.668;2022-09-03T07:15:02;100844.31;;;7.17;70.47
74639;BME280;63146;-33.830;18.668;2022-09-03T07:17:27;100846.84;;;7.25;70.22
74639;BME280;63146;-33.830;18.668;2022-09-03T07:19:54;100845.45;;;6.81;70.07
74639;BME280;63146;-33.830;18.668;2022-09-03T07:22:19;100847.85;;;7.01;69.31
74639;BME280;63146;-33.830;18.668;2022-09-03T07:24:44;100847.61;;;6.83;69.49
74639;BME280;63146;-33.830;18.668;2022-09-03T07:27:10;100850.13;;;7.14;69.74
74639;BME280;63146;-33.830;18.668;2022-09-03T07:29:36;100849.84;;;7.50;70.08
74639;BME280;63146;-33.830;18.668;2022-09-03T07:32:01;100853.93;;;6.98;69.53
74639;BME280;63146;-33.830;18.668;2022-09-03T07:34:28;100851.07;;;7.40;69.56
74639;BME280;63146;-33.830;18.668;2022-09-03T07:36:52;100850.05;;;7.22;69.75
74639;BME280;63146;-33.830;18.668;2022-09-03T07:39:18;100853.06;;;7.33;69.08
74639;BME280;63146;-33.830;18.668;2022-09-03T07:41:44;100850.83;;;7.35;68.97
74639;BME280;63146;-33.830;18.668;2022-09-03T07:44:09;100858.60;;;7.43;68.84
74639;BME280;63146;-33.830;18.668;2022-09-03T07:46:35;100857.62;;;7.58;68.06
74639;BME280;63146;-33.830;18.668;2022-09-03T07:49:00;100858.73;;;7.49;68.01
74639;BME280;63146;-33.830;18.668;2022-09-03T07:51:26;100860.29;;;7.79;68.20
74639;BME280;63146;-33.830;18.668;2022-09-03T07:53:53;100856.73;;;7.65;67.77
74639;BME280;63146;-33.830;18.668;2022-09-03T07:56:15;100854.33;;;7.75;67.17
74639;BME280;63146;-33.830;18.668;2022-09-03T07:58:41;100855.38;;;7.96;66.22
74639;BME280;63146;-33.830;18.668;2022-09-03T08:01:08;100854.89;;;8.09;66.35
74639;BME280;63146;-33.830;18.668;2022-09-03T08:03:31;100857.38;;;8.16;65.75
74639;BME280;63146;-33.830;18.668;2022-09-03T08:06:01;100860.63;;;8.04;66.30
74639;BME280;63146;-33.830;18.668;2022-09-03T08:08:22;100856.87;;;8.25;65.78
74639;BME280;63146;-33.830;18.668;2022-09-03T08:10:48;100857.04;;;8.18;65.91
74639;BME280;63146;-33.830;18.668;2022-09-03T08:13:14;100854.81;;;8.61;65.12
74639;BME280;63146;-33.830;18.668;2022-09-03T08:15:39;100852.90;;;8.31;65.66
74639;BME280;63146;-33.830;18.668;2022-09-03T08:18:05;100853.42;;;8.52;65.68
74639;BME280;63146;-33.830;18.668;2022-09-03T08:20:30;100850.41;;;8.65;65.93
74639;BME280;63146;-33.830;18.668;2022-09-03T08:23:00;100849.42;;;8.49;65.13
74639;BME280;63146;-33.830;18.668;2022-09-03T08:25:21;100848.08;;;8.74;65.41
74639;BME280;63146;-33.830;18.668;2022-09-03T08:27:46;100843.28;;;8.74;65.47
74639;BME280;63146;-33.830;18.668;2022-09-03T08:30:11;100842.69;;;8.54;66.75
74639;BME280;63146;-33.830;18.668;2022-09-03T08:32:37;100841.71;;;8.60;66.57
74639;BME280;63146;-33.830;18.668;2022-09-03T08:35:03;100840.50;;;8.42;65.53
74639;BME280;63146;-33.830;18.668;2022-09-03T08:37:28;100842.46;;;8.67;65.89
74639;BME280;63146;-33.830;18.668;2022-09-03T08:39:53;100841.79;;;8.55;65.63
74639;BME280;63146;-33.830;18.668;2022-09-03T08:42:26;100842.47;;;8.57;66.59
74639;BME280;63146;-33.830;18.668;2022-09-03T08:44:46;100844.20;;;8.52;66.64
74639;BME280;63146;-33.830;18.668;2022-09-03T08:47:11;100839.53;;;8.56;66.84
74639;BME280;63146;-33.830;18.668;2022-09-03T08:49:41;100843.03;;;8.89;66.99
74639;BME280;63146;-33.830;18.668;2022-09-03T08:52:04;100836.40;;;8.56;66.03
74639;BME280;63146;-33.830;18.668;2022-09-03T08:54:29;100833.41;;;8.88;64.91
74639;BME280;63146;-33.830;18.668;2022-09-03T08:56:53;100828.70;;;9.08;64.86
74639;BME280;63146;-33.830;18.668;2022-09-03T08:59:17;100828.71;;;8.68;64.56
74639;BME280;63146;-33.830;18.668;2022-09-03T09:01:50;100830.17;;;8.84;65.61
74639;BME280;63146;-33.830;18.668;2022-09-03T09:04:14;100828.59;;;8.80;65.76
74639;BME280;63146;-33.830;18.668;2022-09-03T09:06:36;100829.78;;;8.71;65.52
74639;BME280;63146;-33.830;18.668;2022-09-03T09:09:06;100827.60;;;8.81;65.44
74639;BME280;63146;-33.830;18.668;2022-09-03T09:11:33;100822.69;;;8.68;65.66
74639;BME280;63146;-33.830;18.668;2022-09-03T09:13:56;100820.43;;;8.65;66.31
74639;BME280;63146;-33.830;18.668;2022-09-03T09:16:21;100822.28;;;9.06;65.93
74639;BME280;63146;-33.830;18.668;2022-09-03T09:18:51;100815.69;;;8.80;64.57
74639;BME280;63146;-33.830;18.668;2022-09-03T09:21:10;100814.22;;;8.87;64.89
74639;BME280;63146;-33.830;18.668;2022-09-03T09:23:33;100814.41;;;8.90;65.59
74639;BME280;63146;-33.830;18.668;2022-09-03T09:25:59;100817.59;;;8.95;66.17
74639;BME280;63146;-33.830;18.668;2022-09-03T09:28:24;100820.17;;;8.59;65.97
74639;BME280;63146;-33.830;18.668;2022-09-03T09:30:49;100824.68;;;8.49;68.40
74639;BME280;63146;-33.830;18.668;2022-09-03T09:33:13;100823.56;;;8.50;68.58
74639;BME280;63146;-33.830;18.668;2022-09-03T09:35:38;100818.56;;;8.24;68.73
74639;BME280;63146;-33.830;18.668;2022-09-03T09:38:04;100807.88;;;8.35;68.64
74639;BME280;63146;-33.830;18.668;2022-09-03T09:40:32;100803.34;;;8.42;68.24
74639;BME280;63146;-33.830;18.668;2022-09-03T09:43:03;100803.49;;;8.49;66.68
74639;BME280;63146;-33.830;18.668;2022-09-03T09:45:23;100803.62;;;8.58;65.10
74639;BME280;63146;-33.830;18.668;2022-09-03T09:47:46;100801.79;;;8.40;64.82
74639;BME280;63146;-33.830;18.668;2022-09-03T09:50:16;100800.63;;;8.45;65.24
74639;BME280;63146;-33.830;18.668;2022-09-03T09:52:36;100802.78;;;8.51;64.91
74639;BME280;63146;-33.830;18.668;2022-09-03T09:55:08;100801.40;;;8.63;65.14
74639;BME280;63146;-33.830;18.668;2022-09-03T09:57:27;100798.06;;;8.82;65.93
74639;BME280;63146;-33.830;18.668;2022-09-03T10:00:04;100799.55;;;8.49;66.02
74639;BME280;63146;-33.830;18.668;2022-09-03T10:02:23;100793.95;;;8.69;65.20
74639;BME280;63146;-33.830;18.668;2022-09-03T10:04:44;100793.23;;;8.68;65.46
74639;BME280;63146;-33.830;18.668;2022-09-03T10:07:17;100794.50;;;8.62;65.03
74639;BME280;63146;-33.830;18.668;2022-09-03T10:09:34;100792.70;;;8.71;65.40
74639;BME280;63146;-33.830;18.668;2022-09-03T10:12:08;100796.33;;;8.73;66.30
74639;BME280;63146;-33.830;18.668;2022-09-03T10:14:28;100795.43;;;8.52;66.82
74639;BME280;63146;-33.830;18.668;2022-09-03T10:16:58;100789.46;;;8.93;67.16
74639;BME280;63146;-33.830;18.668;2022-09-03T10:19:18;100783.47;;;8.76;67.95
74639;BME280;63146;-33.830;18.668;2022-09-03T10:21:48;100775.69;;;8.39;68.05
74639;BME280;63146;-33.830;18.668;2022-09-03T10:24:21;100773.36;;;8.49;67.03
74639;BME280;63146;-33.830;18.668;2022-09-03T10:26:34;100775.82;;;8.74;64.95
74639;BME280;63146;-33.830;18.668;2022-09-03T10:29:00;100778.81;;;8.69;65.69
74639;BME280;63146;-33.830;18.668;2022-09-03T10:31:33;100772.04;;;8.69;68.09
74639;BME280;63146;-33.830;18.668;2022-09-03T10:33:51;100771.26;;;8.80;67.66
74639;BME280;63146;-33.830;18.668;2022-09-03T10:36:17;100764.40;;;8.67;69.17
74639;BME280;63146;-33.830;18.668;2022-09-03T10:38:39;100759.70;;;8.61;68.89
74639;BME280;63146;-33.830;18.668;2022-09-03T10:41:15;100757.97;;;8.55;68.64
74639;BME280;63146;-33.830;18.668;2022-09-03T10:43:40;100759.68;;;8.98;67.21
74639;BME280;63146;-33.830;18.668;2022-09-03T10:46:01;100755.30;;;9.72;65.47
74639;BME280;63146;-33.830;18.668;2022-09-03T10:48:31;100751.09;;;9.79;63.31
74639;BME280;63146;-33.830;18.668;2022-09-03T10:50:49;100747.89;;;9.96;63.45
74639;BME280;63146;-33.830;18.668;2022-09-03T10:53:20;100745.33;;;10.16;63.33
74639;BME280;63146;-33.830;18.668;2022-09-03T10:55:48;100741.80;;;10.10;63.24
74639;BME280;63146;-33.830;18.668;2022-09-03T10:58:12;100737.92;;;9.84;63.01
74639;BME280;63146;-33.830;18.668;2022-09-03T11:00:28;100734.18;;;10.20;61.81
74639;BME280;63146;-33.830;18.668;2022-09-03T11:05:21;100720.02;;;11.07;59.04
74639;BME280;63146;-33.830;18.668;2022-09-03T11:07:46;100715.67;;;11.08;60.24
74639;BME280;63146;-33.830;18.668;2022-09-03T11:10:15;100709.26;;;10.78;59.76
74639;BME280;63146;-33.830;18.668;2022-09-03T11:12:43;100709.24;;;10.41;58.48
74639;BME280;63146;-33.830;18.668;2022-09-03T11:15:02;100712.84;;;10.37;59.98
74639;BME280;63146;-33.830;18.668;2022-09-03T11:17:28;100700.20;;;11.44;58.98
74639;BME280;63146;-33.830;18.668;2022-09-03T11:19:54;100696.03;;;11.25;56.72
74639;BME280;63146;-33.830;18.668;2022-09-03T11:22:17;100689.62;;;11.73;55.70
74639;BME280;63146;-33.830;18.668;2022-09-03T11:24:52;100682.50;;;11.65;56.24
74639;BME280;63146;-33.830;18.668;2022-09-03T11:27:18;100677.57;;;11.44;56.74
74639;BME280;63146;-33.830;18.668;2022-09-03T11:29:36;100674.83;;;11.58;57.05
74639;BME280;63146;-33.830;18.668;2022-09-03T11:32:01;100668.80;;;11.87;55.43
74639;BME280;63146;-33.830;18.668;2022-09-03T11:34:30;100667.38;;;11.76;55.00
74639;BME280;63146;-33.830;18.668;2022-09-03T11:36:49;100665.51;;;11.42;55.78
74639;BME280;63146;-33.830;18.668;2022-09-03T11:39:19;100663.07;;;12.01;57.05
74639;BME280;63146;-33.830;18.668;2022-09-03T11:41:39;100655.89;;;11.79;55.77
74639;BME280;63146;-33.830;18.668;2022-09-03T11:44:10;100653.48;;;11.56;56.04
74639;BME280;63146;-33.830;18.668;2022-09-03T11:46:30;100640.81;;;11.67;56.44
74639;BME280;63146;-33.830;18.668;2022-09-03T11:49:07;100633.63;;;12.07;54.80
74639;BME280;63146;-33.830;18.668;2022-09-03T11:51:31;100629.36;;;11.94;54.32
74639;BME280;63146;-33.830;18.668;2022-09-03T11:53:54;100627.74;;;11.86;54.03
74639;BME280;63146;-33.830;18.668;2022-09-03T11:56:18;100629.69;;;11.86;54.44
74639;BME280;63146;-33.830;18.668;2022-09-03T11:58:39;100623.92;;;11.66;53.95
74639;BME280;63146;-33.830;18.668;2022-09-03T12:01:07;100617.74;;;11.74;51.30
74639;BME280;63146;-33.830;18.668;2022-09-03T12:03:29;100617.82;;;11.87;51.19
74639;BME280;63146;-33.830;18.668;2022-09-03T12:06:05;100621.46;;;11.94;51.37
74639;BME280;63146;-33.830;18.668;2022-09-03T12:10:50;100618.07;;;11.94;52.07
74639;BME280;63146;-33.830;18.668;2022-09-03T12:13:20;100617.27;;;11.97;51.71
74639;BME280;63146;-33.830;18.668;2022-09-03T12:15:51;100616.44;;;11.76;51.03
74639;BME280;63146;-33.830;18.668;2022-09-03T12:18:03;100614.21;;;11.92;50.95
74639;BME280;63146;-33.830;18.668;2022-09-03T12:20:27;100614.11;;;11.50;53.49
74639;BME280;63146;-33.830;18.668;2022-09-03T12:22:51;100612.43;;;11.42;53.36
74639;BME280;63146;-33.830;18.668;2022-09-03T12:25:16;100606.19;;;11.61;54.05
74639;BME280;63146;-33.830;18.668;2022-09-03T12:27:44;100601.34;;;12.00;51.39
74639;BME280;63146;-33.830;18.668;2022-09-03T12:30:14;100599.98;;;12.00;52.59
74639;BME280;63146;-33.830;18.668;2022-09-03T12:32:34;100596.40;;;12.29;52.46
74639;BME280;63146;-33.830;18.668;2022-09-03T12:35:08;100588.65;;;12.53;51.83